sensor_id;sensor_type;location;lat;lon;timestamp;pressure;altitude;pressure_sealevel;temperature;humidity
29383;BME280;16365;51.598;7.668;2022-10-31T00:01:36;101393.34;;;20.49;44.28
29383;BME280;16365;51.598;7.668;2022-10-31T00:04:03;101388.53;;;20.49;44.29
29383;BME280;16365;51.598;7.668;2022-10-31T00:06:29;101396.63;;;20.51;44.25
29383;BME280;16365;51.598;7.668;2022-10-31T00:08:57;101393.81;;;20.51;44.22
29383;BME280;16365;51.598;7.668;2022-10-31T00:11:24;101396.22;;;20.52;44.39
29383;BME280;16365;51.598;7.668;2022-10-31T00:13:50;101393.03;;;20.54;44.47
29383;BME280;16365;51.598;7.668;2022-10-31T00:16:19;101400.34;;;20.59;44.46
29383;BME280;16365;51.598;7.668;2022-10-31T00:18:48;101400.00;;;20.64;44.42
29383;BME280;16365;51.598;7.668;2022-10-31T00:21:16;101400.88;;;20.68;44.44
29383;BME280;16365;51.598;7.668;2022-10-31T00:23:42;101404.56;;;20.72;44.36
29383;BME280;16365;51.598;7.668;2022-10-31T00:26:08;101405.81;;;20.74;44.55
29383;BME280;16365;51.598;7.668;2022-10-31T00:28:35;101406.66;;;20.78;44.40
29383;BME280;16365;51.598;7.668;2022-10-31T00:31:04;101417.19;;;20.82;44.58
29383;BME280;16365;51.598;7.668;2022-10-31T00:33:30;101417.25;;;20.85;44.59
29383;BME280;16365;51.598;7.668;2022-10-31T00:35:56;101416.47;;;20.88;44.40
29383;BME280;16365;51.598;7.668;2022-10-31T00:38:23;101415.72;;;20.91;44.42
29383;BME280;16365;51.598;7.668;2022-10-31T00:40:49;101412.94;;;20.95;44.36
29383;BME280;16365;51.598;7.668;2022-10-31T00:43:16;101412.16;;;20.98;44.40
29383;BME280;16365;51.598;7.668;2022-10-31T00:45:42;101411.41;;;21.01;44.45
29383;BME280;16365;51.598;7.668;2022-10-31T00:48:09;101422.75;;;21.04;44.38
29383;BME280;16365;51.598;7.668;2022-10-31T00:50:36;101416.72;;;21.06;44.51
29383;BME280;16365;51.598;7.668;2022-10-31T00:53:02;101412.69;;;21.07;44.63
29383;BME280;16365;51.598;7.668;2022-10-31T00:55:31;101412.34;;;21.09;44.43
29383;BME280;16365;51.598;7.668;2022-10-31T00:57:57;101421.63;;;21.13;44.39
29383;BME280;16365;51.598;7.668;2022-10-31T01:00:24;101414.00;;;21.13;44.43
29383;BME280;16365;51.598;7.668;2022-10-31T01:02:50;101410.41;;;21.16;44.47
29383;BME280;16365;51.598;7.668;2022-10-31T01:05:17;101403.19;;;21.19;44.50
29383;BME280;16365;51.598;7.668;2022-10-31T01:07:43;101400.78;;;21.21;44.69
29383;BME280;16365;51.598;7.668;2022-10-31T01:10:10;101399.59;;;21.22;44.59
29383;BME280;16365;51.598;7.668;2022-10-31T01:12:40;101405.66;;;21.24;44.40
29383;BME280;16365;51.598;7.668;2022-10-31T01:15:07;101411.72;;;21.26;44.39
29383;BME280;16365;51.598;7.668;2022-10-31T01:17:36;101408.91;;;21.26;44.28
29383;BME280;16365;51.598;7.668;2022-10-31T01:20:03;101408.91;;;21.26;44.50
29383;BME280;16365;51.598;7.668;2022-10-31T01:22:30;101411.38;;;21.27;44.43
29383;BME280;16365;51.598;7.668;2022-10-31T01:24:56;101413.34;;;21.27;44.60
29383;BME280;16365;51.598;7.668;2022-10-31T01:27:24;101412.16;;;21.28;44.51
29383;BME280;16365;51.598;7.668;2022-10-31T01:29:50;101406.91;;;21.26;44.56
29383;BME280;16365;51.598;7.668;2022-10-31T01:32:17;101406.09;;;21.26;44.60
29383;BME280;16365;51.598;7.668;2022-10-31T01:34:43;101411.38;;;21.27;44.39
29383;BME280;16365;51.598;7.668;2022-10-31T01:37:10;101411.38;;;21.27;44.58
29383;BME280;16365;51.598;7.668;2022-10-31T01:39:36;101403.25;;;21.26;44.47
29383;BME280;16365;51.598;7.668;2022-10-31T01:42:03;101408.91;;;21.26;44.49
29383;BME280;16365;51.598;7.668;2022-10-31T01:49:31;101383.09;;;21.24;44.67
29383;BME280;16365;51.598;7.668;2022-10-31T01:52:02;101385.13;;;21.23;44.67
29383;BME280;16365;51.598;7.668;2022-10-31T01:54:32;101392.78;;;21.23;44.58
29383;BME280;16365;51.598;7.668;2022-10-31T01:57:00;101405.22;;;21.22;44.56
29383;BME280;16365;51.598;7.668;2022-10-31T01:59:28;101415.69;;;21.21;44.63
29383;BME280;16365;51.598;7.668;2022-10-31T02:01:55;101423.34;;;21.21;44.65
29383;BME280;16365;51.598;7.668;2022-10-31T02:04:22;101433.00;;;21.20;44.74
29383;BME280;16365;51.598;7.668;2022-10-31T02:07:00;101432.63;;;21.21;44.88
29383;BME280;16365;51.598;7.668;2022-10-31T02:09:29;101450.34;;;21.22;44.84
29383;BME280;16365;51.598;7.668;2022-10-31T02:11:59;101443.53;;;21.23;44.73
29383;BME280;16365;51.598;7.668;2022-10-31T02:14:28;101439.13;;;21.25;44.90
29383;BME280;16365;51.598;7.668;2022-10-31T02:16:55;101435.91;;;21.27;44.95
29383;BME280;16365;51.598;7.668;2022-10-31T02:19:30;101419.88;;;21.31;45.02
29383;BME280;16365;51.598;7.668;2022-10-31T02:22:02;101418.31;;;21.34;44.98
29383;BME280;16365;51.598;7.668;2022-10-31T02:30:30;101389.38;;;21.40;44.78
29383;BME280;16365;51.598;7.668;2022-10-31T02:32:51;101393.78;;;21.38;44.64
29383;BME280;16365;51.598;7.668;2022-10-31T02:48:42;101396.56;;;21.04;44.43
29383;BME280;16365;51.598;7.668;2022-10-31T02:51:10;101393.22;;;20.95;44.40
29383;BME280;16365;51.598;7.668;2022-10-31T02:53:37;101387.91;;;20.90;44.45
29383;BME280;16365;51.598;7.668;2022-10-31T02:56:05;101390.25;;;20.84;44.68
29383;BME280;16365;51.598;7.668;2022-10-31T02:58:34;101385.31;;;20.77;44.50
29383;BME280;16365;51.598;7.668;2022-10-31T03:01:10;101394.50;;;20.71;44.34
29383;BME280;16365;51.598;7.668;2022-10-31T03:03:44;101394.38;;;20.64;44.57
29383;BME280;16365;51.598;7.668;2022-10-31T03:08:59;101393.00;;;20.50;44.78
29383;BME280;16365;51.598;7.668;2022-10-31T03:11:31;101395.75;;;20.47;44.80
29383;BME280;16365;51.598;7.668;2022-10-31T03:16:59;101404.03;;;20.40;44.94
29383;BME280;16365;51.598;7.668;2022-10-31T03:19:27;101410.06;;;20.38;44.98
29383;BME280;16365;51.598;7.668;2022-10-31T03:22:11;101419.25;;;20.35;44.94
29383;BME280;16365;51.598;7.668;2022-10-31T03:24:41;101420.84;;;20.33;45.07
29383;BME280;16365;51.598;7.668;2022-10-31T03:27:08;101419.97;;;20.28;45.02
29383;BME280;16365;51.598;7.668;2022-10-31T03:29:36;101425.59;;;20.28;45.14
29383;BME280;16365;51.598;7.668;2022-10-31T03:32:13;101431.22;;;20.28;45.28
29383;BME280;16365;51.598;7.668;2022-10-31T03:34:41;101429.22;;;20.29;45.34
29383;BME280;16365;51.598;7.668;2022-10-31T03:37:09;101431.66;;;20.31;45.47
29383;BME280;16365;51.598;7.668;2022-10-31T03:39:37;101428.47;;;20.32;45.53
29383;BME280;16365;51.598;7.668;2022-10-31T03:42:05;101437.00;;;20.36;45.29
29383;BME280;16365;51.598;7.668;2022-10-31T03:44:32;101428.97;;;20.38;45.46
29383;BME280;16365;51.598;7.668;2022-10-31T03:46:59;101425.75;;;20.39;45.48
29383;BME280;16365;51.598;7.668;2022-10-31T03:49:27;101427.38;;;20.40;45.37
29383;BME280;16365;51.598;7.668;2022-10-31T03:59:39;101407.81;;;20.47;45.27
29383;BME280;16365;51.598;7.668;2022-10-31T04:02:07;101421.91;;;20.47;45.39
29383;BME280;16365;51.598;7.668;2022-10-31T04:04:37;101436.34;;;20.46;45.34
29383;BME280;16365;51.598;7.668;2022-10-31T04:07:04;101429.47;;;20.43;45.23
29383;BME280;16365;51.598;7.668;2022-10-31T04:09:32;101431.84;;;20.41;45.31
29383;BME280;16365;51.598;7.668;2022-10-31T04:11:59;101433.03;;;20.40;45.25
29383;BME280;16365;51.598;7.668;2022-10-31T04:14:27;101425.34;;;20.37;45.29
29383;BME280;16365;51.598;7.668;2022-10-31T04:16:55;101420.84;;;20.33;45.22
29383;BME280;16365;51.598;7.668;2022-10-31T04:19:22;101418.78;;;20.29;45.21
29383;BME280;16365;51.598;7.668;2022-10-31T04:21:48;101417.47;;;20.23;45.40
29383;BME280;16365;51.598;7.668;2022-10-31T04:24:14;101408.94;;;20.20;45.29
29383;BME280;16365;51.598;7.668;2022-10-31T04:26:41;101409.28;;;20.15;45.21
29383;BME280;16365;51.598;7.668;2022-10-31T04:29:07;101398.34;;;20.10;45.21
29383;BME280;16365;51.598;7.668;2022-10-31T04:31:33;101393.41;;;20.03;45.23
29383;BME280;16365;51.598;7.668;2022-10-31T04:34:00;101398.53;;;19.97;45.25
29383;BME280;16365;51.598;7.668;2022-10-31T04:36:26;101398.84;;;19.92;45.31
29383;BME280;16365;51.598;7.668;2022-10-31T04:38:53;101402.78;;;19.88;45.28
29383;BME280;16365;51.598;7.668;2022-10-31T04:41:21;101400.28;;;19.83;45.43
29383;BME280;16365;51.598;7.668;2022-10-31T04:43:48;101402.56;;;19.77;45.41
29383;BME280;16365;51.598;7.668;2022-10-31T04:46:15;101400.06;;;19.72;45.49
29383;BME280;16365;51.598;7.668;2022-10-31T04:48:41;101402.03;;;19.68;45.42
29383;BME280;16365;51.598;7.668;2022-10-31T04:51:08;101412.41;;;19.64;45.49
29383;BME280;16365;51.598;7.668;2022-10-31T04:53:34;101401.06;;;19.60;45.55
29383;BME280;16365;51.598;7.668;2022-10-31T04:56:00;101408.59;;;19.56;45.54
29383;BME280;16365;51.598;7.668;2022-10-31T04:58:27;101403.69;;;19.53;45.59
29383;BME280;16365;51.598;7.668;2022-10-31T05:00:54;101398.03;;;19.49;45.56
29383;BME280;16365;51.598;7.668;2022-10-31T05:03:21;101397.94;;;19.46;45.82
29383;BME280;16365;51.598;7.668;2022-10-31T05:05:48;101399.50;;;19.43;45.63
29383;BME280;16365;51.598;7.668;2022-10-31T05:08:14;101407.50;;;19.41;45.73
29383;BME280;16365;51.598;7.668;2022-10-31T05:10:41;101396.97;;;19.38;45.70
29383;BME280;16365;51.598;7.668;2022-10-31T05:13:07;101393.75;;;19.36;45.80
29383;BME280;16365;51.598;7.668;2022-10-31T05:15:34;101388.50;;;19.35;45.83
29383;BME280;16365;51.598;7.668;2022-10-31T05:18:00;101387.69;;;19.34;45.73
29383;BME280;16365;51.598;7.668;2022-10-31T05:20:28;101385.22;;;19.33;45.73
29383;BME280;16365;51.598;7.668;2022-10-31T05:22:55;101384.78;;;19.31;45.96
29383;BME280;16365;51.598;7.668;2022-10-31T05:25:24;101374.75;;;19.30;45.96
29383;BME280;16365;51.598;7.668;2022-10-31T05:27:50;101370.66;;;19.27;45.88
29383;BME280;16365;51.598;7.668;2022-10-31T05:30:18;101374.19;;;19.24;45.78
29383;BME280;16365;51.598;7.668;2022-10-31T05:32:47;101364.91;;;19.20;45.99
29383;BME280;16365;51.598;7.668;2022-10-31T05:35:18;101372.88;;;19.18;45.78
29383;BME280;16365;51.598;7.668;2022-10-31T05:37:45;101382.06;;;19.15;45.79
29383;BME280;16365;51.598;7.668;2022-10-31T05:40:12;101376.00;;;19.13;45.90
29383;BME280;16365;51.598;7.668;2022-10-31T05:42:39;101378.72;;;19.09;45.74
29383;BME280;16365;51.598;7.668;2022-10-31T05:45:07;101378.28;;;19.07;45.79
29383;BME280;16365;51.598;7.668;2022-10-31T05:47:33;101377.41;;;19.03;45.78
29383;BME280;16365;51.598;7.668;2022-10-31T05:50:01;101368.88;;;18.99;45.70
29383;BME280;16365;51.598;7.668;2022-10-31T05:52:27;101367.66;;;18.97;45.70
29383;BME280;16365;51.598;7.668;2022-10-31T05:54:53;101374.81;;;18.94;45.75
29383;BME280;16365;51.598;7.668;2022-10-31T05:57:20;101377.56;;;18.91;46.01
29383;BME280;16365;51.598;7.668;2022-10-31T05:59:46;101366.25;;;18.87;45.88
29383;BME280;16365;51.598;7.668;2022-10-31T06:02:20;101374.19;;;18.85;45.80
29383;BME280;16365;51.598;7.668;2022-10-31T06:04:46;101363.72;;;18.82;45.91
29383;BME280;16365;51.598;7.668;2022-10-31T06:07:12;101366.06;;;18.80;45.79
29383;BME280;16365;51.598;7.668;2022-10-31T06:09:40;101371.25;;;18.78;45.83
29383;BME280;16365;51.598;7.668;2022-10-31T06:12:06;101372.44;;;18.77;46.13
29383;BME280;16365;51.598;7.668;2022-10-31T06:14:32;101370.81;;;18.76;46.30
29383;BME280;16365;51.598;7.668;2022-10-31T06:16:59;101376.44;;;18.76;46.29
29383;BME280;16365;51.598;7.668;2022-10-31T06:19:25;101375.25;;;18.77;46.27
29383;BME280;16365;51.598;7.668;2022-10-31T06:21:51;101376.06;;;18.78;46.18
29383;BME280;16365;51.598;7.668;2022-10-31T06:24:18;101380.88;;;18.77;46.27
29383;BME280;16365;51.598;7.668;2022-10-31T06:26:44;101376.44;;;18.76;46.06
29383;BME280;16365;51.598;7.668;2022-10-31T06:29:10;101384.03;;;18.75;46.30
29383;BME280;16365;51.598;7.668;2022-10-31T06:31:37;101374.34;;;18.73;46.25
29383;BME280;16365;51.598;7.668;2022-10-31T06:34:03;101379.16;;;18.72;46.13
29383;BME280;16365;51.598;7.668;2022-10-31T06:36:29;101389.13;;;18.70;46.09
29383;BME280;16365;51.598;7.668;2022-10-31T06:38:56;101377.88;;;18.70;46.15
29383;BME280;16365;51.598;7.668;2022-10-31T06:41:22;101379.41;;;18.67;46.29
29383;BME280;16365;51.598;7.668;2022-10-31T06:43:48;101371.81;;;18.68;46.70
29383;BME280;16365;51.598;7.668;2022-10-31T06:46:15;101373.44;;;18.69;46.55
29383;BME280;16365;51.598;7.668;2022-10-31T06:48:41;101369.84;;;18.68;46.49
29383;BME280;16365;51.598;7.668;2022-10-31T06:51:08;101372.72;;;18.72;46.47
29383;BME280;16365;51.598;7.668;2022-10-31T06:53:34;101377.97;;;18.73;46.61
29383;BME280;16365;51.598;7.668;2022-10-31T06:56:01;101375.25;;;18.77;46.62
29383;BME280;16365;51.598;7.668;2022-10-31T06:58:27;101383.72;;;18.81;46.59
29383;BME280;16365;51.598;7.668;2022-10-31T07:00:53;101374.56;;;18.84;46.78
29383;BME280;16365;51.598;7.668;2022-10-31T07:03:19;101383.09;;;18.87;46.71
29383;BME280;16365;51.598;7.668;2022-10-31T07:05:46;101387.22;;;18.93;46.66
29383;BME280;16365;51.598;7.668;2022-10-31T07:08:13;101382.50;;;18.97;46.63
29383;BME280;16365;51.598;7.668;2022-10-31T07:10:40;101392.66;;;19.02;46.69
29383;BME280;16365;51.598;7.668;2022-10-31T07:13:13;101385.91;;;19.07;46.67
29383;BME280;16365;51.598;7.668;2022-10-31T07:15:40;101392.47;;;19.14;46.85
29383;BME280;16365;51.598;7.668;2022-10-31T07:18:08;101388.94;;;19.17;46.87
29383;BME280;16365;51.598;7.668;2022-10-31T07:20:35;101392.25;;;19.23;46.70
29383;BME280;16365;51.598;7.668;2022-10-31T07:23:02;101392.78;;;19.29;46.82
29383;BME280;16365;51.598;7.668;2022-10-31T07:25:29;101388.03;;;19.33;46.73
29383;BME280;16365;51.598;7.668;2022-10-31T07:27:56;101393.34;;;19.38;46.62
29383;BME280;16365;51.598;7.668;2022-10-31T07:30:22;101395.44;;;19.41;46.77
29383;BME280;16365;51.598;7.668;2022-10-31T07:32:49;101403.97;;;19.44;46.84
29383;BME280;16365;51.598;7.668;2022-10-31T07:35:17;101396.75;;;19.47;46.75
29383;BME280;16365;51.598;7.668;2022-10-31T07:37:44;101395.66;;;19.51;46.44
29383;BME280;16365;51.598;7.668;2022-10-31T07:40:11;101396.53;;;19.56;46.71
29383;BME280;16365;51.598;7.668;2022-10-31T07:42:38;101398.25;;;19.60;46.53
29383;BME280;16365;51.598;7.668;2022-10-31T07:45:06;101397.94;;;19.65;46.68
29383;BME280;16365;51.598;7.668;2022-10-31T07:47:39;101399.66;;;19.70;46.59
29383;BME280;16365;51.598;7.668;2022-10-31T07:50:06;101397.25;;;19.72;46.46
29383;BME280;16365;51.598;7.668;2022-10-31T07:52:32;101400.16;;;19.75;46.50
29383;BME280;16365;51.598;7.668;2022-10-31T07:54:58;101398.59;;;19.78;46.51
29383;BME280;16365;51.598;7.668;2022-10-31T07:57:24;101391.38;;;19.81;46.49
29383;BME280;16365;51.598;7.668;2022-10-31T07:59:55;101391.47;;;19.84;46.48
29383;BME280;16365;51.598;7.668;2022-10-31T08:02:22;101388.66;;;19.84;46.53
29383;BME280;16365;51.598;7.668;2022-10-31T08:04:48;101382.28;;;19.87;46.50
29383;BME280;16365;51.598;7.668;2022-10-31T08:07:15;101383.13;;;19.91;46.46
29383;BME280;16365;51.598;7.668;2022-10-31T08:09:42;101390.84;;;19.94;46.34
29383;BME280;16365;51.598;7.668;2022-10-31T08:12:08;101387.63;;;19.96;46.61
29383;BME280;16365;51.598;7.668;2022-10-31T08:14:34;101398.16;;;19.99;46.51
29383;BME280;16365;51.598;7.668;2022-10-31T08:17:00;101398.22;;;20.02;46.09
29383;BME280;16365;51.598;7.668;2022-10-31T08:19:27;101396.28;;;20.07;46.50
29383;BME280;16365;51.598;7.668;2022-10-31T08:21:53;101366.16;;;20.11;46.57
29383;BME280;16365;51.598;7.668;2022-10-31T08:24:21;101369.03;;;20.14;46.46
29383;BME280;16365;51.598;7.668;2022-10-31T08:26:47;101368.31;;;20.17;46.67
29383;BME280;16365;51.598;7.668;2022-10-31T08:29:14;101370.34;;;20.20;46.67
29383;BME280;16365;51.598;7.668;2022-10-31T08:31:41;101367.59;;;20.24;46.38
29383;BME280;16365;51.598;7.668;2022-10-31T08:34:08;101371.28;;;20.28;46.43
29383;BME280;16365;51.598;7.668;2022-10-31T08:36:34;101375.31;;;20.31;46.46
29383;BME280;16365;51.598;7.668;2022-10-31T08:39:01;101378.66;;;20.36;46.52
29383;BME280;16365;51.598;7.668;2022-10-31T08:41:30;101374.25;;;20.39;46.43
29383;BME280;16365;51.598;7.668;2022-10-31T08:43:57;101370.31;;;20.43;46.27
29383;BME280;16365;51.598;7.668;2022-10-31T08:46:23;101371.22;;;20.47;46.35
29383;BME280;16365;51.598;7.668;2022-10-31T08:48:49;101368.88;;;20.53;46.32
29383;BME280;16365;51.598;7.668;2022-10-31T08:51:16;101372.97;;;20.59;46.55
29383;BME280;16365;51.598;7.668;2022-10-31T08:53:42;101375.09;;;20.66;46.58
29383;BME280;16365;51.598;7.668;2022-10-31T08:56:08;101380.00;;;20.72;46.71
29383;BME280;16365;51.598;7.668;2022-10-31T08:58:35;101374.50;;;20.79;47.11
29383;BME280;16365;51.598;7.668;2022-10-31T09:01:05;101371.81;;;20.90;46.69
29383;BME280;16365;51.598;7.668;2022-10-31T09:03:32;101363.44;;;20.97;46.72
29383;BME280;16365;51.598;7.668;2022-10-31T09:05:58;101365.56;;;21.08;46.60
29383;BME280;16365;51.598;7.668;2022-10-31T09:08:25;101365.66;;;21.15;46.50
29383;BME280;16365;51.598;7.668;2022-10-31T09:10:55;101364.56;;;21.23;46.69
29383;BME280;16365;51.598;7.668;2022-10-31T09:13:22;101364.28;;;21.32;46.53
29383;BME280;16365;51.598;7.668;2022-10-31T09:15:53;101365.19;;;21.39;46.76
29383;BME280;16365;51.598;7.668;2022-10-31T09:18:20;101358.44;;;21.47;46.54
29383;BME280;16365;51.598;7.668;2022-10-31T09:20:47;101367.38;;;21.57;46.54
29383;BME280;16365;51.598;7.668;2022-10-31T09:23:17;101361.81;;;21.64;46.57
29383;BME280;16365;51.598;7.668;2022-10-31T09:25:48;101360.28;;;21.73;46.64
29383;BME280;16365;51.598;7.668;2022-10-31T09:28:17;101365.63;;;21.82;46.37
29383;BME280;16365;51.598;7.668;2022-10-31T09:30:45;101358.81;;;21.90;46.50
29383;BME280;16365;51.598;7.668;2022-10-31T09:33:12;101360.50;;;21.98;46.45
29383;BME280;16365;51.598;7.668;2022-10-31T09:35:39;101360.13;;;22.03;46.24
29383;BME280;16365;51.598;7.668;2022-10-31T09:38:10;101357.75;;;22.09;46.22
29383;BME280;16365;51.598;7.668;2022-10-31T09:40:40;101360.66;;;22.13;46.19
29383;BME280;16365;51.598;7.668;2022-10-31T09:53:25;101341.81;;;22.31;46.09
29383;BME280;16365;51.598;7.668;2022-10-31T09:55:54;101336.59;;;22.37;45.96
29383;BME280;16365;51.598;7.668;2022-10-31T09:58:26;101334.63;;;22.41;46.12
29383;BME280;16365;51.598;7.668;2022-10-31T10:00:54;101320.94;;;22.46;46.03
29383;BME280;16365;51.598;7.668;2022-10-31T10:03:34;101328.22;;;22.51;46.16
29383;BME280;16365;51.598;7.668;2022-10-31T10:06:13;101315.31;;;22.57;46.09
29383;BME280;16365;51.598;7.668;2022-10-31T10:08:40;101319.78;;;22.62;45.97
29383;BME280;16365;51.598;7.668;2022-10-31T10:23:55;101307.84;;;22.90;45.88
29383;BME280;16365;51.598;7.668;2022-10-31T10:26:31;101312.72;;;22.93;45.90
29383;BME280;16365;51.598;7.668;2022-10-31T10:29:01;101308.69;;;22.97;45.83
29383;BME280;16365;51.598;7.668;2022-10-31T10:31:31;101304.25;;;23.00;45.85
29383;BME280;16365;51.598;7.668;2022-10-31T10:39:37;101293.78;;;23.15;45.98
29383;BME280;16365;51.598;7.668;2022-10-31T10:42:10;101293.38;;;23.20;45.84
29383;BME280;16365;51.598;7.668;2022-10-31T10:44:57;101302.72;;;23.27;45.95
29383;BME280;16365;51.598;7.668;2022-10-31T10:47:43;101294.63;;;23.33;45.90
29383;BME280;16365;51.598;7.668;2022-10-31T10:55:46;101280.91;;;23.53;45.84
29383;BME280;16365;51.598;7.668;2022-10-31T10:58:16;101278.47;;;23.58;45.78
29383;BME280;16365;51.598;7.668;2022-10-31T11:00:43;101272.88;;;23.66;45.78
29383;BME280;16365;51.598;7.668;2022-10-31T11:03:14;101275.28;;;23.71;45.82
29383;BME280;16365;51.598;7.668;2022-10-31T11:05:48;101272.06;;;23.76;45.58
29383;BME280;16365;51.598;7.668;2022-10-31T11:08:25;101271.66;;;23.81;45.57
29383;BME280;16365;51.598;7.668;2022-10-31T11:10:58;101263.16;;;23.84;45.53
29383;BME280;16365;51.598;7.668;2022-10-31T11:13:25;101258.69;;;23.87;45.32
29383;BME280;16365;51.598;7.668;2022-10-31T11:15:54;101254.25;;;23.90;45.34
29383;BME280;16365;51.598;7.668;2022-10-31T11:18:22;101244.09;;;23.92;45.22
29383;BME280;16365;51.598;7.668;2022-10-31T11:20:56;101246.53;;;23.97;45.31
29383;BME280;16365;51.598;7.668;2022-10-31T11:23:24;101238.03;;;24.01;45.23
29383;BME280;16365;51.598;7.668;2022-10-31T11:25:51;101225.47;;;24.05;45.26
29383;BME280;16365;51.598;7.668;2022-10-31T11:28:18;101218.16;;;24.11;45.29
29383;BME280;16365;51.598;7.668;2022-10-31T11:30:46;101215.72;;;24.17;45.34
29383;BME280;16365;51.598;7.668;2022-10-31T11:33:25;101206.78;;;24.22;45.25
29383;BME280;16365;51.598;7.668;2022-10-31T11:35:53;101205.19;;;24.28;45.40
29383;BME280;16365;51.598;7.668;2022-10-31T11:38:26;101200.69;;;24.34;45.24
29383;BME280;16365;51.598;7.668;2022-10-31T11:43:53;101197.03;;;24.45;45.32
29383;BME280;16365;51.598;7.668;2022-10-31T11:48:55;101180.81;;;24.52;44.78
29383;BME280;16365;51.598;7.668;2022-10-31T11:51:26;101176.75;;;24.57;44.83
29383;BME280;16365;51.598;7.668;2022-10-31T11:53:55;101169.41;;;24.59;45.04
29383;BME280;16365;51.598;7.668;2022-10-31T11:56:37;101162.94;;;24.63;44.99
29383;BME280;16365;51.598;7.668;2022-10-31T11:59:05;101158.44;;;24.65;44.98
29383;BME280;16365;51.598;7.668;2022-10-31T12:01:32;101160.09;;;24.66;44.73
29383;BME280;16365;51.598;7.668;2022-10-31T12:06:28;101146.31;;;24.65;44.46
29383;BME280;16365;51.598;7.668;2022-10-31T12:08:55;101146.72;;;24.63;44.47
29383;BME280;16365;51.598;7.668;2022-10-31T12:11:33;101127.31;;;24.61;44.69
29383;BME280;16365;51.598;7.668;2022-10-31T12:14:13;101122.06;;;24.56;44.68
29383;BME280;16365;51.598;7.668;2022-10-31T12:19:25;101120.06;;;24.53;44.86
29383;BME280;16365;51.598;7.668;2022-10-31T12:22:13;101119.25;;;24.53;44.62
29383;BME280;16365;51.598;7.668;2022-10-31T12:30:02;101123.31;;;24.52;45.01
29383;BME280;16365;51.598;7.668;2022-10-31T12:32:49;101109.13;;;24.52;45.02
29383;BME280;16365;51.598;7.668;2022-10-31T12:41:07;101105.81;;;24.64;45.15
29383;BME280;16365;51.598;7.668;2022-10-31T12:46:12;101095.22;;;24.72;45.29
29383;BME280;16365;51.598;7.668;2022-10-31T12:53:52;101087.44;;;24.83;45.28
29383;BME280;16365;51.598;7.668;2022-10-31T12:58:52;101079.69;;;24.91;44.95
29383;BME280;16365;51.598;7.668;2022-10-31T13:01:23;101065.09;;;24.92;45.14
29383;BME280;16365;51.598;7.668;2022-10-31T13:06:19;101065.84;;;25.00;45.04
29383;BME280;16365;51.598;7.668;2022-10-31T13:08:54;101054.44;;;25.03;45.07
29383;BME280;16365;51.598;7.668;2022-10-31T13:11:22;101047.53;;;25.08;45.17
29383;BME280;16365;51.598;7.668;2022-10-31T13:13:54;101043.88;;;25.11;45.11
29383;BME280;16365;51.598;7.668;2022-10-31T13:16:24;101038.56;;;25.13;44.95
29383;BME280;16365;51.598;7.668;2022-10-31T13:19:00;101033.28;;;25.15;45.11
29383;BME280;16365;51.598;7.668;2022-10-31T13:21:33;101025.59;;;25.16;44.96
29383;BME280;16365;51.598;7.668;2022-10-31T13:24:02;101017.88;;;25.16;44.63
29383;BME280;16365;51.598;7.668;2022-10-31T13:26:36;101018.69;;;25.17;44.63
29383;BME280;16365;51.598;7.668;2022-10-31T13:29:08;101010.97;;;25.17;45.01
29383;BME280;16365;51.598;7.668;2022-10-31T13:31:38;101005.28;;;25.17;44.85
29383;BME280;16365;51.598;7.668;2022-10-31T13:34:09;100999.19;;;25.19;44.95
29383;BME280;16365;51.598;7.668;2022-10-31T13:36:42;100993.94;;;25.17;44.75
29383;BME280;16365;51.598;7.668;2022-10-31T13:46:40;100981.31;;;25.22;44.99
29383;BME280;16365;51.598;7.668;2022-10-31T13:51:47;100982.94;;;25.23;44.78
29383;BME280;16365;51.598;7.668;2022-10-31T13:54:22;100986.97;;;25.25;44.85
29383;BME280;16365;51.598;7.668;2022-10-31T13:56:49;100982.91;;;25.26;45.00
29383;BME280;16365;51.598;7.668;2022-10-31T13:59:20;100982.47;;;25.28;45.05
29383;BME280;16365;51.598;7.668;2022-10-31T14:01:53;100976.38;;;25.29;44.84
29383;BME280;16365;51.598;7.668;2022-10-31T14:04:25;100969.84;;;25.32;45.04
29383;BME280;16365;51.598;7.668;2022-10-31T14:07:06;100949.56;;;25.34;45.02
29383;BME280;16365;51.598;7.668;2022-10-31T14:09:36;100950.38;;;25.34;45.03
29383;BME280;16365;51.598;7.668;2022-10-31T14:12:08;100943.47;;;25.35;44.88
29383;BME280;16365;51.598;7.668;2022-10-31T14:14:41;100951.97;;;25.35;44.96
29383;BME280;16365;51.598;7.668;2022-10-31T14:17:15;100945.50;;;25.35;44.92
29383;BME280;16365;51.598;7.668;2022-10-31T14:19:43;100934.16;;;25.35;45.06
29383;BME280;16365;51.598;7.668;2022-10-31T14:22:20;100920.34;;;25.33;45.10
29383;BME280;16365;51.598;7.668;2022-10-31T14:24:47;100922.00;;;25.34;45.03
29383;BME280;16365;51.598;7.668;2022-10-31T14:29:45;100901.72;;;25.32;45.06
29383;BME280;16365;51.598;7.668;2022-10-31T14:32:25;100907.41;;;25.32;45.35
29383;BME280;16365;51.598;7.668;2022-10-31T14:34:55;100904.19;;;25.30;44.97
29383;BME280;16365;51.598;7.668;2022-10-31T14:40:07;100887.97;;;25.31;45.05
29383;BME280;16365;51.598;7.668;2022-10-31T14:50:51;100896.91;;;25.29;44.91
29383;BME280;16365;51.598;7.668;2022-10-31T14:53:26;100893.28;;;25.29;44.89
29383;BME280;16365;51.598;7.668;2022-10-31T14:55:54;100891.25;;;25.29;45.12
29383;BME280;16365;51.598;7.668;2022-10-31T14:58:22;100888.41;;;25.29;45.00
29383;BME280;16365;51.598;7.668;2022-10-31T15:00:51;100878.69;;;25.27;45.04
29383;BME280;16365;51.598;7.668;2022-10-31T15:04:03;100887.63;;;25.25;44.89
29383;BME280;16365;51.598;7.668;2022-10-31T15:06:28;100882.00;;;25.22;44.91
29383;BME280;16365;51.598;7.668;2022-10-31T15:08:56;100871.88;;;25.21;44.78